Time;durP1;ratioP1;P1;durP2;ratioP2;P2;SDS_P1;SDS_P2;PMS_P1;PMS_P2;Temp;Humidity;BMP_temperature;BMP_pressure;BME280_temperature;BME280_humidity;BME280_pressure;Samples;Min_cycle;Max_cycle;Signal;HPM_P1;HPM_P2
2022/11/26 00:00:29;;;;;;;18.73;6.78;;;5.90;99.90;;;;;;5015090;28;20252;-78
2022/11/26 00:02:57;;;;;;;16.25;7.47;;;5.90;99.90;;;;;;5013822;28;20026;-78
2022/11/26 00:05:28;;;;;;;20.90;6.88;;;5.90;99.90;;;;;;5013173;28;20450;-75
2022/11/26 00:07:59;;;;;;;12.00;6.78;;;6.00;99.90;;;;;;5010930;28;20080;-75
2022/11/26 00:10:29;;;;;;;13.85;6.75;;;6.00;99.90;;;;;;5012131;28;20030;-75
2022/11/26 00:12:57;;;;;;;14.23;5.53;;;6.00;99.90;;;;;;5010593;28;20022;-75
2022/11/26 00:15:30;;;;;;;13.88;6.05;;;6.00;99.90;;;;;;5011853;28;20019;-76
2022/11/26 00:17:58;;;;;;;14.35;6.10;;;6.00;99.90;;;;;;5012484;28;20467;-76
2022/11/26 00:20:29;;;;;;;15.95;5.78;;;6.00;99.90;;;;;;5015742;28;20018;-77
2022/11/26 00:22:57;;;;;;;15.90;6.68;;;6.00;99.90;;;;;;5015503;28;20021;-74
2022/11/26 00:25:31;;;;;;;11.63;5.25;;;6.00;99.90;;;;;;5015592;28;20104;-75
2022/11/26 00:27:58;;;;;;;15.85;5.70;;;6.10;99.90;;;;;;5015547;28;20486;-77
2022/11/26 00:30:26;;;;;;;12.40;5.60;;;6.00;99.90;;;;;;5014068;28;20025;-77
2022/11/26 00:32:56;;;;;;;11.57;5.28;;;6.10;99.90;;;;;;5013899;28;20092;-76
2022/11/26 00:35:22;;;;;;;11.10;5.05;;;6.10;99.90;;;;;;5015314;28;20090;-77
2022/11/26 00:37:54;;;;;;;11.48;4.82;;;6.00;99.90;;;;;;5015087;28;20034;-77
2022/11/26 00:40:26;;;;;;;12.43;4.97;;;6.10;99.90;;;;;;5014065;28;20030;-77
2022/11/26 00:42:53;;;;;;;14.25;4.80;;;6.10;99.90;;;;;;5014360;28;20034;-78
2022/11/26 00:45:22;;;;;;;14.57;5.13;;;6.10;99.90;;;;;;5013704;28;20022;-75
2022/11/26 00:48:03;;;;;;;10.55;4.30;;;6.10;99.90;;;;;;5013802;28;20034;-78
2022/11/26 00:50:35;;;;;;;13.90;4.40;;;6.10;99.90;;;;;;5015938;28;20025;-76
2022/11/26 00:53:01;;;;;;;9.48;4.95;;;6.10;99.90;;;;;;5023504;28;20021;-74
2022/11/26 00:55:27;;;;;;;12.27;4.32;;;6.10;99.90;;;;;;5033392;28;20017;-75
2022/11/26 00:57:56;;;;;;;21.40;5.05;;;6.20;99.90;;;;;;5014535;28;20091;-77
2022/11/26 01:00:26;;;;;;;20.20;4.50;;;6.10;99.90;;;;;;5014790;28;20026;-76
2022/11/26 01:02:52;;;;;;;10.18;4.38;;;6.20;99.90;;;;;;5014832;28;20028;-77
2022/11/26 01:05:19;;;;;;;12.70;4.32;;;6.20;99.90;;;;;;5015264;28;20042;-78
2022/11/26 01:07:46;;;;;;;12.27;4.60;;;6.10;99.90;;;;;;5014848;28;20068;-78
2022/11/26 01:10:27;;;;;;;11.20;4.22;;;6.20;99.90;;;;;;5018136;28;20032;-77
2022/11/26 01:12:55;;;;;;;10.77;4.40;;;6.20;99.90;;;;;;5017134;28;20025;-78
2022/11/26 01:15:25;;;;;;;13.95;4.40;;;6.20;99.90;;;;;;5018231;28;20025;-78
2022/11/26 01:17:57;;;;;;;13.27;5.32;;;6.20;99.90;;;;;;5017983;28;20057;-78
2022/11/26 01:20:22;;;;;;;14.77;4.60;;;6.30;99.90;;;;;;5016856;28;20022;-76
2022/11/26 01:22:50;;;;;;;13.65;5.20;;;6.30;99.90;;;;;;5014495;28;20022;-76
2022/11/26 01:25:16;;;;;;;9.35;4.30;;;6.20;99.90;;;;;;5016304;28;20014;-78
2022/11/26 01:27:42;;;;;;;9.90;4.88;;;6.20;99.90;;;;;;5017435;28;20061;-77
2022/11/26 01:30:24;;;;;;;13.07;5.05;;;6.30;99.90;;;;;;5016261;28;20032;-76
2022/11/26 01:32:53;;;;;;;12.07;6.18;;;6.20;99.90;;;;;;5014339;28;20030;-77
2022/11/26 01:35:22;;;;;;;14.57;4.95;;;6.30;99.90;;;;;;5014363;28;20029;-77
2022/11/26 01:37:54;;;;;;;11.88;5.25;;;6.30;99.90;;;;;;5014151;28;20116;-77
2022/11/26 01:40:58;;;;;;;12.45;5.72;;;6.30;99.90;;;;;;5013283;28;20083;-77
2022/11/26 01:43:32;;;;;;;18.17;6.27;;;6.30;99.90;;;;;;5003608;28;20033;-77
2022/11/26 01:45:58;;;;;;;14.55;5.55;;;6.30;99.90;;;;;;5015612;28;20251;-78
2022/11/26 01:48:32;;;;;;;11.90;5.68;;;6.30;99.90;;;;;;5013154;28;20120;-76
2022/11/26 01:51:01;;;;;;;;;;;6.30;99.90;;;;;;5014075;28;20410;-78
2022/11/26 01:53:59;;;;;;;19.90;6.32;;;6.30;99.90;;;;;;5012971;28;19905;-76
2022/11/26 01:56:27;;;;;;;15.48;5.70;;;6.30;99.90;;;;;;5013940;28;20029;-78
2022/11/26 01:59:05;;;;;;;14.45;5.47;;;6.30;99.90;;;;;;5014934;28;20109;-77
2022/11/26 02:01:32;;;;;;;12.95;4.97;;;6.20;99.90;;;;;;5019033;28;20030;-78
2022/11/26 02:04:29;;;;;;;14.77;4.85;;;6.20;99.90;;;;;;5015106;28;20033;-78
2022/11/26 02:07:01;;;;;;;13.70;5.65;;;6.30;99.90;;;;;;5012330;28;20062;-77
2022/11/26 02:09:30;;;;;;;11.32;4.82;;;6.20;99.90;;;;;;5016558;28;20470;-78
2022/11/26 02:12:01;;;;;;;10.65;5.63;;;6.30;99.90;;;;;;5016078;28;20037;-78
2022/11/26 02:14:34;;;;;;;10.35;5.47;;;6.20;99.90;;;;;;5015903;28;20026;-78
2022/11/26 02:17:37;;;;;;;13.30;5.93;;;6.30;99.90;;;;;;5014928;28;20025;-78
2022/11/26 02:20:43;;;;;;;16.98;6.20;;;6.20;99.90;;;;;;5014069;28;20022;-78
2022/11/26 02:23:36;;;;;;;17.67;5.70;;;6.20;99.90;;;;;;5014691;28;20032;-77
2022/11/26 02:26:23;;;;;;;12.40;5.43;;;6.30;99.90;;;;;;5013641;28;20029;-77
2022/11/26 02:29:26;;;;;;;14.57;6.38;;;6.30;99.90;;;;;;5013664;28;20084;-77
2022/11/26 02:32:12;;;;;;;19.63;7.65;;;6.30;99.90;;;;;;5014257;28;20033;-77
2022/11/26 02:35:30;;;;;;;16.70;7.75;;;6.20;99.90;;;;;;5003226;28;20030;-77
2022/11/26 02:38:08;;;;;;;13.07;6.50;;;6.30;99.90;;;;;;4953168;28;20432;-77
2022/11/26 02:40:37;;;;;;;16.88;7.43;;;6.20;99.90;;;;;;4972631;28;20027;-77
2022/11/26 02:43:03;;;;;;;15.52;6.30;;;6.20;99.90;;;;;;4972990;28;20058;-77
2022/11/26 02:45:39;;;;;;;12.60;6.45;;;6.20;99.90;;;;;;4974229;28;20066;-77
2022/11/26 02:48:10;;;;;;;19.15;7.05;;;6.20;99.90;;;;;;4972985;28;20439;-77
2022/11/26 02:50:47;;;;;;;18.42;6.85;;;6.20;99.90;;;;;;4973028;28;20070;-76
2022/11/26 02:53:16;;;;;;;16.48;6.53;;;6.20;99.90;;;;;;4972784;28;20484;-76
2022/11/26 02:55:51;;;;;;;14.43;5.60;;;6.20;99.90;;;;;;4972693;28;20125;-77
2022/11/26 02:58:18;;;;;;;14.63;5.90;;;6.20;99.90;;;;;;4973091;28;20059;-77
2022/11/26 03:00:45;;;;;;;17.20;5.68;;;6.20;99.90;;;;;;4974100;28;20037;-76
2022/11/26 03:03:31;;;;;;;13.07;6.63;;;6.20;99.90;;;;;;4972462;28;20535;-77
2022/11/26 03:06:09;;;;;;;16.52;6.22;;;6.20;99.90;;;;;;4973875;28;20480;-76
2022/11/26 03:08:36;;;;;;;15.02;5.65;;;6.20;99.90;;;;;;4973751;28;20027;-77
2022/11/26 03:11:14;;;;;;;13.23;5.93;;;6.20;99.90;;;;;;4935559;29;20040;-77
2022/11/26 03:13:39;;;;;;;11.50;6.00;;;6.20;99.90;;;;;;4945207;29;20023;-77
2022/11/26 03:16:05;;;;;;;13.95;6.88;;;6.20;99.90;;;;;;4954061;29;20027;-78
2022/11/26 03:18:37;;;;;;;12.70;5.95;;;6.20;99.90;;;;;;4954245;28;20031;-77
2022/11/26 03:21:06;;;;;;;15.98;6.13;;;6.20;99.90;;;;;;4953205;28;20114;-75
2022/11/26 03:23:31;;;;;;;14.45;6.10;;;6.20;99.90;;;;;;4954568;28;20031;-79
2022/11/26 03:25:57;;;;;;;14.60;6.07;;;6.20;99.90;;;;;;4954315;28;20042;-76
2022/11/26 03:28:23;;;;;;;18.50;6.45;;;6.20;99.90;;;;;;4954646;28;20031;-77
2022/11/26 03:30:49;;;;;;;15.25;5.80;;;6.20;99.90;;;;;;4956041;28;20039;-77
2022/11/26 03:33:15;;;;;;;14.57;6.05;;;6.30;99.90;;;;;;4954643;29;20039;-76
2022/11/26 03:35:41;;;;;;;12.80;5.63;;;6.20;99.90;;;;;;4955835;28;20027;-78
2022/11/26 03:38:10;;;;;;;10.52;4.65;;;6.30;99.90;;;;;;4955552;28;20031;-78
2022/11/26 03:40:44;;;;;;;13.90;6.05;;;6.30;99.90;;;;;;4956245;28;20027;-76
2022/11/26 03:43:13;;;;;;;11.77;6.35;;;6.30;99.90;;;;;;4954927;28;20079;-77
2022/11/26 03:45:39;;;;;;;13.38;6.25;;;6.30;99.90;;;;;;4956293;28;20083;-78
2022/11/26 03:48:07;;;;;;;14.93;6.65;;;6.30;99.90;;;;;;4955094;28;20031;-77
2022/11/26 03:50:33;;;;;;;14.02;5.60;;;6.20;99.90;;;;;;4956252;28;20023;-78
2022/11/26 03:53:04;;;;;;;16.90;5.70;;;6.30;99.90;;;;;;4955875;28;20560;-78
2022/11/26 03:55:30;;;;;;;12.27;4.97;;;6.20;99.90;;;;;;4958889;29;20028;-78
2022/11/26 03:57:55;;;;;;;11.18;4.68;;;6.20;99.90;;;;;;4959201;28;20540;-78
2022/11/26 04:00:24;;;;;;;12.60;5.57;;;6.20;99.90;;;;;;4958144;29;20050;-78
2022/11/26 04:02:50;;;;;;;17.52;6.20;;;6.20;99.90;;;;;;4959818;28;20078;-78
2022/11/26 04:05:15;;;;;;;14.73;6.85;;;6.20;99.90;;;;;;4959355;29;20122;-78
2022/11/26 04:07:41;;;;;;;16.55;5.82;;;6.20;99.90;;;;;;4958983;28;20121;-77
2022/11/26 04:10:09;;;;;;;11.07;5.60;;;6.30;99.90;;;;;;4960915;28;20559;-78
2022/11/26 04:12:35;;;;;;;10.60;5.05;;;6.30;99.90;;;;;;4961852;28;20383;-77
2022/11/26 04:15:01;;;;;;;11.70;5.55;;;6.30;99.90;;;;;;4958467;28;20023;-76
2022/11/26 04:17:39;;;;;;;16.33;5.90;;;6.30;99.90;;;;;;4959147;28;20031;-78
2022/11/26 04:20:08;;;;;;;13.00;5.07;;;6.20;99.90;;;;;;4958568;28;20028;-77
2022/11/26 04:22:33;;;;;;;9.10;4.85;;;6.30;99.90;;;;;;4958575;28;20028;-78
2022/11/26 04:24:59;;;;;;;10.82;4.80;;;6.20;99.90;;;;;;4959837;28;20082;-78
2022/11/26 04:27:24;;;;;;;12.13;4.25;;;6.20;99.90;;;;;;4960268;28;20035;-77
2022/11/26 04:29:50;;;;;;;12.15;5.22;;;6.20;99.90;;;;;;4959104;29;20122;-78
2022/11/26 04:32:15;;;;;;;14.63;5.05;;;6.10;99.90;;;;;;4959308;28;20106;-77
2022/11/26 04:34:44;;;;;;;15.43;4.78;;;6.10;99.90;;;;;;4961513;28;20027;-78
2022/11/26 04:37:10;;;;;;;10.25;5.18;;;6.10;99.90;;;;;;4963590;28;20063;-77
2022/11/26 04:39:38;;;;;;;13.00;5.25;;;6.10;99.90;;;;;;4963261;28;20176;-79
2022/11/26 04:42:04;;;;;;;13.23;5.45;;;6.10;99.90;;;;;;4963642;29;20027;-78
2022/11/26 04:44:36;;;;;;;13.05;5.10;;;6.00;99.90;;;;;;4964554;28;20091;-79
2022/11/26 04:47:07;;;;;;;12.48;5.03;;;6.00;99.90;;;;;;4963038;29;20563;-79
2022/11/26 04:49:36;;;;;;;10.27;4.38;;;5.90;99.90;;;;;;4963214;28;20035;-79
2022/11/26 04:52:09;;;;;;;10.35;4.60;;;5.90;99.90;;;;;;4964293;28;20037;-79
2022/11/26 04:54:37;;;;;;;13.05;5.38;;;5.80;99.90;;;;;;4964854;28;20059;-78
2022/11/26 04:57:05;;;;;;;8.73;4.78;;;5.80;99.90;;;;;;4958923;28;20029;-76
2022/11/26 04:59:37;;;;;;;11.20;3.88;;;5.80;99.90;;;;;;4960078;28;20376;-76
2022/11/26 05:02:03;;;;;;;9.27;3.92;;;5.80;99.90;;;;;;4956486;28;20031;-75
2022/11/26 05:04:31;;;;;;;16.48;3.90;;;5.80;99.90;;;;;;4954964;28;20094;-78
2022/11/26 05:06:57;;;;;;;12.57;3.97;;;5.70;99.90;;;;;;4956387;28;20031;-75
2022/11/26 05:09:26;;;;;;;9.10;4.10;;;5.80;99.90;;;;;;4956432;28;20154;-76
2022/11/26 05:11:51;;;;;;;10.90;3.40;;;5.80;99.90;;;;;;4955053;28;20085;-75
2022/11/26 05:14:17;;;;;;;10.15;2.67;;;5.80;99.90;;;;;;4956251;28;20094;-76
2022/11/26 05:16:42;;;;;;;10.20;3.35;;;5.80;99.90;;;;;;4956275;28;20019;-77
2022/11/26 05:19:08;;;;;;;6.95;3.63;;;5.80;99.90;;;;;;4955001;28;20023;-77
2022/11/26 05:21:34;;;;;;;10.27;4.28;;;5.80;99.90;;;;;;4956097;28;20027;-76
2022/11/26 05:24:06;;;;;;;6.93;3.33;;;5.80;99.90;;;;;;4954830;28;20027;-76
2022/11/26 05:26:40;;;;;;;7.03;3.38;;;5.90;99.90;;;;;;4955911;28;20043;-75
2022/11/26 05:29:06;;;;;;;10.80;3.47;;;5.90;99.90;;;;;;4957479;28;20052;-77
2022/11/26 05:31:31;;;;;;;7.55;3.58;;;5.90;99.90;;;;;;4956363;28;20522;-76
2022/11/26 05:34:03;;;;;;;9.98;3.55;;;5.90;99.90;;;;;;4957717;28;20042;-77
2022/11/26 05:36:31;;;;;;;9.43;3.72;;;5.90;99.90;;;;;;4955981;28;20046;-77
2022/11/26 05:39:03;;;;;;;9.13;3.50;;;5.90;99.90;;;;;;4954560;28;20094;-78
2022/11/26 05:41:35;;;;;;;10.48;3.72;;;5.90;99.90;;;;;;4954705;29;20027;-78
2022/11/26 05:44:00;;;;;;;6.57;3.38;;;5.90;99.90;;;;;;4953335;28;20042;-78
2022/11/26 05:46:26;;;;;;;8.55;3.78;;;5.90;99.90;;;;;;4957104;28;20027;-78
2022/11/26 05:48:52;;;;;;;7.88;3.60;;;5.90;99.90;;;;;;4954271;28;20058;-78
2022/11/26 05:51:23;;;;;;;13.95;3.50;;;5.90;99.90;;;;;;4940654;29;20370;-79
2022/11/26 05:53:49;;;;;;;7.82;3.90;;;5.90;99.90;;;;;;4957668;29;20026;-79
2022/11/26 05:56:15;;;;;;;9.60;3.67;;;5.90;99.90;;;;;;4956765;28;20031;-77
2022/11/26 05:58:46;;;;;;;11.45;4.07;;;5.90;99.90;;;;;;4955004;28;20034;-78
2022/11/26 06:01:15;;;;;;;11.13;4.03;;;5.90;99.90;;;;;;4950561;29;20122;-77
2022/11/26 06:03:49;;;;;;;6.63;3.38;;;5.90;99.90;;;;;;4957286;28;20106;-77
2022/11/26 06:06:15;;;;;;;9.45;3.83;;;5.90;99.90;;;;;;4949940;28;20091;-76
2022/11/26 06:08:50;;;;;;;10.00;4.28;;;6.00;99.90;;;;;;4948850;28;20095;-77
2022/11/26 06:11:16;;;;;;;10.82;3.88;;;5.90;99.90;;;;;;4947616;28;20049;-76
2022/11/26 06:13:41;;;;;;;11.85;4.63;;;6.00;99.90;;;;;;4950576;28;20031;-77
2022/11/26 06:16:13;;;;;;;8.38;3.55;;;6.00;99.90;;;;;;4949519;28;20041;-77
2022/11/26 06:18:39;;;;;;;13.98;4.03;;;6.00;99.90;;;;;;4948400;29;20102;-77
2022/11/26 06:21:06;;;;;;;10.65;4.20;;;5.90;99.90;;;;;;4945967;28;20619;-77
2022/11/26 06:23:37;;;;;;;9.98;4.70;;;6.00;99.90;;;;;;4947323;28;20027;-77
2022/11/26 06:26:10;;;;;;;10.50;4.05;;;5.90;99.90;;;;;;4943725;28;20042;-77
2022/11/26 06:28:36;;;;;;;7.90;4.13;;;6.00;99.90;;;;;;4945526;28;20027;-77
2022/11/26 06:31:08;;;;;;;11.50;4.97;;;6.00;99.90;;;;;;4946602;28;20149;-79
2022/11/26 06:33:39;;;;;;;11.25;4.32;;;5.90;99.90;;;;;;4949881;28;20056;-77
2022/11/26 06:36:05;;;;;;;10.00;4.18;;;5.90;99.90;;;;;;4951779;28;20027;-79
2022/11/26 06:38:31;;;;;;;8.43;4.07;;;5.90;99.90;;;;;;4953262;28;20446;-79
2022/11/26 06:41:04;;;;;;;10.38;4.45;;;5.90;99.90;;;;;;4958841;28;20041;-80
2022/11/26 06:43:31;;;;;;;14.15;4.53;;;5.90;99.90;;;;;;4956528;28;20043;-79
2022/11/26 06:46:06;;;;;;;7.75;3.75;;;5.90;99.90;;;;;;4957110;29;20035;-79
2022/11/26 06:48:32;;;;;;;12.00;4.82;;;5.90;99.90;;;;;;4951463;28;20077;-79
2022/11/26 06:51:11;;;;;;;12.73;4.53;;;5.90;99.90;;;;;;4958053;29;20062;-80
2022/11/26 06:53:40;;;;;;;10.23;4.68;;;5.80;99.90;;;;;;4960011;29;20437;-79
2022/11/26 06:56:11;;;;;;;9.95;4.70;;;5.80;99.90;;;;;;4943355;28;20035;-71
2022/11/26 06:58:39;;;;;;;13.10;4.68;;;5.80;99.90;;;;;;4952157;28;20081;-71
2022/11/26 07:01:11;;;;;;;9.75;4.20;;;5.80;99.90;;;;;;4951988;28;20031;-79
2022/11/26 07:03:37;;;;;;;12.65;5.05;;;5.80;99.90;;;;;;4953108;28;20033;-78
2022/11/26 07:06:17;;;;;;;16.42;5.65;;;5.80;99.90;;;;;;4954249;28;20050;-80
2022/11/26 07:08:47;;;;;;;16.52;4.78;;;5.80;99.90;;;;;;4963399;28;20050;-79
2022/11/26 07:11:13;;;;;;;11.75;5.18;;;5.90;99.90;;;;;;4956872;29;20035;-79
2022/11/26 07:13:52;;;;;;;10.70;4.90;;;5.80;99.90;;;;;;4961173;29;20024;-79
2022/11/26 07:16:18;;;;;;;10.70;4.97;;;5.90;99.90;;;;;;4962126;28;20054;-79
2022/11/26 07:18:50;;;;;;;11.90;5.22;;;5.80;99.90;;;;;;4963715;28;20039;-79
2022/11/26 07:21:20;;;;;;;11.88;5.18;;;5.90;99.90;;;;;;4960712;28;20027;-78
2022/11/26 07:23:46;;;;;;;12.45;4.65;;;5.80;99.90;;;;;;4956015;28;20050;-79
2022/11/26 07:26:17;;;;;;;11.80;5.63;;;5.80;99.90;;;;;;4952126;28;20036;-80
2022/11/26 07:28:46;;;;;;;10.35;5.53;;;5.80;99.90;;;;;;4953794;28;20027;-79
2022/11/26 07:31:14;;;;;;;10.20;5.65;;;5.80;99.90;;;;;;4960882;28;20038;-82
2022/11/26 07:33:40;;;;;;;11.52;5.10;;;5.80;99.90;;;;;;4957997;28;20032;-81
2022/11/26 07:36:10;;;;;;;16.08;7.10;;;5.70;99.90;;;;;;4958178;28;20031;-80
2022/11/26 07:38:36;;;;;;;15.35;7.05;;;5.70;99.90;;;;;;4971251;28;20028;-80
2022/11/26 07:41:04;;;;;;;16.13;7.00;;;5.70;99.90;;;;;;4966289;28;20031;-79
2022/11/26 07:43:30;;;;;;;13.32;6.80;;;5.70;99.90;;;;;;4964306;28;20055;-78
2022/11/26 07:45:55;;;;;;;12.02;6.72;;;5.70;99.90;;;;;;4958627;28;20031;-78
2022/11/26 07:48:21;;;;;;;20.40;7.07;;;5.70;99.90;;;;;;4967697;29;20038;-79
2022/11/26 07:50:46;;;;;;;12.98;7.00;;;5.70;99.90;;;;;;4964680;28;20571;-81
2022/11/26 07:53:13;;;;;;;13.65;5.70;;;5.70;99.90;;;;;;4962520;29;20034;-79
2022/11/26 07:55:39;;;;;;;11.57;6.20;;;5.70;99.90;;;;;;4963595;28;20388;-80
2022/11/26 07:58:06;;;;;;;11.90;6.85;;;5.80;99.90;;;;;;4961438;28;20023;-79
2022/11/26 08:00:32;;;;;;;18.00;7.80;;;5.70;99.90;;;;;;4964403;28;20028;-80
2022/11/26 08:02:58;;;;;;;13.80;8.43;;;5.80;99.90;;;;;;4967215;28;20078;-80
2022/11/26 08:05:24;;;;;;;15.68;7.13;;;5.80;99.90;;;;;;4938177;28;20027;-78
2022/11/26 08:07:50;;;;;;;14.30;6.45;;;5.70;99.90;;;;;;4957679;28;20106;-80
2022/11/26 08:10:15;;;;;;;12.05;5.88;;;5.80;99.90;;;;;;4958272;29;20427;-80
2022/11/26 08:12:41;;;;;;;10.63;5.78;;;5.80;99.90;;;;;;4962438;28;20058;-80
2022/11/26 08:15:07;;;;;;;17.17;6.13;;;5.70;99.90;;;;;;4960212;28;20027;-81
2022/11/26 08:17:33;;;;;;;10.43;5.13;;;5.80;99.90;;;;;;4959759;28;20033;-79
2022/11/26 08:19:58;;;;;;;15.18;5.97;;;5.70;99.90;;;;;;4959796;28;20027;-80
2022/11/26 08:22:24;;;;;;;13.95;6.15;;;5.80;99.90;;;;;;4961923;28;20070;-81
2022/11/26 08:24:50;;;;;;;10.38;5.25;;;5.80;99.90;;;;;;4959270;28;20074;-79
2022/11/26 08:27:16;;;;;;;11.07;6.45;;;5.80;99.90;;;;;;4960537;28;20125;-81
2022/11/26 08:29:41;;;;;;;12.32;5.95;;;5.80;99.90;;;;;;4971443;28;20023;-78
2022/11/26 08:32:07;;;;;;;15.15;7.00;;;5.80;99.90;;;;;;4970043;28;20532;-80
2022/11/26 08:34:32;;;;;;;10.35;6.15;;;5.90;99.90;;;;;;4965692;28;20031;-81
2022/11/26 08:36:58;;;;;;;11.45;5.80;;;5.80;99.90;;;;;;4962113;28;20484;-79
2022/11/26 08:39:24;;;;;;;12.85;6.03;;;5.80;99.90;;;;;;4961376;28;20030;-78
2022/11/26 08:41:49;;;;;;;11.20;5.68;;;5.90;99.90;;;;;;4962769;28;20037;-80
2022/11/26 08:44:15;;;;;;;11.02;5.35;;;5.90;99.90;;;;;;4954988;28;20031;-79
2022/11/26 08:46:41;;;;;;;11.07;5.97;;;5.90;99.90;;;;;;4958397;28;20044;-80
2022/11/26 08:49:10;;;;;;;12.32;5.95;;;6.00;99.90;;;;;;4960481;28;20099;-80
2022/11/26 08:51:36;;;;;;;12.02;6.50;;;5.90;99.90;;;;;;4966695;28;20027;-80
2022/11/26 08:54:02;;;;;;;11.40;6.35;;;5.90;99.90;;;;;;4972462;28;20428;-79
2022/11/26 08:56:28;;;;;;;14.80;6.90;;;6.00;99.90;;;;;;4962986;28;20413;-80
2022/11/26 08:58:54;;;;;;;12.38;6.53;;;6.00;99.90;;;;;;4975252;28;20082;-79
2022/11/26 09:01:26;;;;;;;13.15;7.50;;;6.00;99.90;;;;;;4962292;28;20031;-80
2022/11/26 09:03:54;;;;;;;15.70;7.40;;;6.00;99.90;;;;;;4963365;29;20031;-80
2022/11/26 09:06:22;;;;;;;14.60;7.47;;;6.00;99.90;;;;;;4965657;29;20023;-80
2022/11/26 09:11:35;;;;;;;11.73;5.35;;;6.10;99.90;;;;;;4966863;28;20514;-80
2022/11/26 09:14:01;;;;;;;11.63;6.45;;;6.10;99.90;;;;;;4952909;29;20019;-79
2022/11/26 09:16:27;;;;;;;12.73;5.93;;;6.10;99.90;;;;;;4957096;28;20035;-80
2022/11/26 09:18:53;;;;;;;10.85;6.13;;;6.10;99.90;;;;;;4958063;29;20031;-81
2022/11/26 09:21:19;;;;;;;11.80;6.55;;;6.10;99.90;;;;;;4961243;28;20031;-80
2022/11/26 09:23:45;;;;;;;11.77;6.40;;;6.10;99.90;;;;;;4959210;28;20477;-80
2022/11/26 09:26:10;;;;;;;12.13;6.47;;;6.10;99.90;;;;;;4961050;28;20063;-83
2022/11/26 09:28:36;;;;;;;12.00;6.18;;;6.20;99.90;;;;;;4960900;28;20027;-81
2022/11/26 09:31:02;;;;;;;10.73;6.95;;;6.20;99.90;;;;;;4954427;28;20131;-80
2022/11/26 09:33:28;;;;;;;13.25;6.03;;;6.30;99.90;;;;;;4959062;28;20034;-79
2022/11/26 09:36:02;;;;;;;12.65;6.65;;;6.30;99.90;;;;;;4958009;28;20060;-80
2022/11/26 09:38:28;;;;;;;13.25;6.72;;;6.30;99.90;;;;;;4959347;28;20019;-80
2022/11/26 09:41:21;;;;;;;12.52;6.28;;;6.40;99.90;;;;;;4956466;28;20472;-79
2022/11/26 09:43:59;;;;;;;15.93;7.65;;;6.40;99.90;;;;;;4956847;28;20049;-80
2022/11/26 09:46:54;;;;;;;18.90;9.18;;;6.50;99.90;;;;;;4962300;29;20035;-78
2022/11/26 09:49:21;;;;;;;13.88;7.40;;;6.60;99.90;;;;;;4967912;28;20054;-80
2022/11/26 09:51:51;;;;;;;16.73;7.38;;;6.70;99.90;;;;;;4962695;28;20055;-80
2022/11/26 09:54:20;;;;;;;13.00;6.25;;;6.80;99.90;;;;;;4958328;28;20026;-81
2022/11/26 09:56:51;;;;;;;15.63;6.68;;;6.80;99.90;;;;;;4963321;28;20019;-79
2022/11/26 09:59:19;;;;;;;13.38;6.38;;;6.80;99.90;;;;;;4963795;29;20019;-81
2022/11/26 10:01:45;;;;;;;15.70;7.75;;;6.90;99.90;;;;;;4959574;28;20035;-80
2022/11/26 10:04:33;;;;;;;14.65;7.88;;;7.00;99.90;;;;;;4957955;29;20045;-79
2022/11/26 10:07:26;;;;;;;14.85;7.32;;;7.00;99.90;;;;;;4962611;28;20030;-80
2022/11/26 10:10:14;;;;;;;13.90;7.30;;;7.10;99.90;;;;;;4966223;28;20055;-80
2022/11/26 10:13:21;;;;;;;14.25;6.95;;;7.10;99.90;;;;;;4964878;29;20062;-80
2022/11/26 10:16:10;;;;;;;15.40;8.98;;;7.10;99.90;;;;;;4963765;29;20102;-80
2022/11/26 10:19:02;;;;;;;15.77;8.07;;;7.20;99.90;;;;;;4959534;28;20122;-81
2022/11/26 10:21:32;;;;;;;15.20;5.78;;;7.20;99.90;;;;;;4958411;28;20027;-79
2022/11/26 10:24:14;;;;;;;9.98;5.38;;;7.20;99.90;;;;;;4967452;28;20029;-80
2022/11/26 10:26:40;;;;;;;16.45;5.60;;;7.20;99.90;;;;;;4966078;28;20051;-78
2022/11/26 10:29:21;;;;;;;9.00;4.72;;;7.30;99.90;;;;;;4965094;28;20050;-80
2022/11/26 10:31:51;;;;;;;10.57;4.93;;;7.30;99.90;;;;;;4964999;28;20152;-79
2022/11/26 10:34:23;;;;;;;6.10;3.75;;;7.40;99.90;;;;;;4960628;28;20034;-79
2022/11/26 10:36:50;;;;;;;11.30;4.22;;;7.40;99.90;;;;;;4965816;28;20100;-80
2022/11/26 10:39:18;;;;;;;8.15;4.65;;;7.40;99.90;;;;;;4966219;29;20030;-79
2022/11/26 10:41:44;;;;;;;11.00;5.22;;;7.40;99.90;;;;;;4950643;29;20102;-78
2022/11/26 10:44:38;;;;;;;13.80;5.55;;;7.50;99.90;;;;;;4942012;29;20031;-79
2022/11/26 10:47:31;;;;;;;10.95;4.75;;;7.50;99.90;;;;;;4944247;29;20028;-80
2022/11/26 10:50:03;;;;;;;10.93;4.63;;;7.50;99.90;;;;;;4959084;29;20083;-79
2022/11/26 10:52:32;;;;;;;10.10;4.47;;;7.60;99.90;;;;;;4959955;28;20420;-79
2022/11/26 10:55:16;;;;;;;8.82;4.07;;;7.60;99.90;;;;;;4962656;28;20105;-79
2022/11/26 10:57:49;;;;;;;10.77;5.25;;;7.60;99.90;;;;;;4963089;28;20026;-79
2022/11/26 11:00:37;;;;;;;8.30;4.53;;;7.70;99.90;;;;;;4961671;28;20034;-79
2022/11/26 11:03:12;;;;;;;13.98;4.82;;;7.70;99.90;;;;;;4961000;28;20083;-78
2022/11/26 11:05:39;;;;;;;10.00;5.25;;;7.70;99.90;;;;;;4958361;28;20026;-82
2022/11/26 11:08:11;;;;;;;15.43;5.53;;;7.80;99.90;;;;;;4960210;28;20082;-80
2022/11/26 11:10:52;;;;;;;10.35;4.28;;;7.80;99.90;;;;;;4959504;28;20032;-81
2022/11/26 11:13:19;;;;;;;10.10;5.80;;;7.80;99.90;;;;;;4968734;28;20047;-80
2022/11/26 11:15:45;;;;;;;13.93;4.82;;;7.80;99.90;;;;;;4957995;29;20066;-81
2022/11/26 11:18:21;;;;;;;11.35;4.95;;;7.90;99.90;;;;;;4960795;29;20522;-80
2022/11/26 11:20:54;;;;;;;10.60;4.97;;;7.90;99.90;;;;;;4962188;28;20460;-80
2022/11/26 11:23:25;;;;;;;14.10;5.05;;;7.90;99.90;;;;;;4957945;29;20031;-81
2022/11/26 11:26:25;;;;;;;9.32;4.00;;;7.90;99.90;;;;;;4952320;29;20027;-82
2022/11/26 11:28:57;;;;;;;10.18;3.85;;;7.90;99.90;;;;;;4962146;29;20110;-80
2022/11/26 11:31:27;;;;;;;10.35;3.75;;;8.00;99.90;;;;;;4978105;28;20039;-79
2022/11/26 11:34:18;;;;;;;9.93;3.80;;;8.00;99.90;;;;;;4976912;28;20030;-80
2022/11/26 11:37:01;;;;;;;9.20;4.10;;;8.00;99.90;;;;;;4968943;28;20028;-81
2022/11/26 11:39:34;;;;;;;10.88;4.88;;;8.00;99.90;;;;;;4960619;23;20059;-77
2022/11/26 11:42:03;;;;;;;7.20;3.50;;;8.10;99.90;;;;;;4926396;29;20480;-77
2022/11/26 11:44:44;;;;;;;12.85;4.07;;;8.10;99.90;;;;;;4932950;29;20097;-76
2022/11/26 11:47:36;;;;;;;8.02;2.58;;;8.10;99.90;;;;;;4930051;29;20064;-76
2022/11/26 11:50:23;;;;;;;8.18;2.25;;;8.20;99.90;;;;;;4932993;29;20032;-76
2022/11/26 11:53:20;;;;;;;13.13;3.83;;;8.20;99.90;;;;;;4931213;29;20060;-75
2022/11/26 11:56:21;;;;;;;7.25;2.78;;;8.20;99.90;;;;;;4922168;29;20106;-76
2022/11/26 11:59:21;;;;;;;6.80;3.22;;;8.20;99.90;;;;;;4920020;29;20420;-76
2022/11/26 12:01:47;;;;;;;13.18;3.35;;;8.20;99.90;;;;;;4932367;29;20545;-76
2022/11/26 12:04:51;;;;;;;11.73;3.05;;;8.20;99.90;;;;;;4927861;29;20040;-77
2022/11/26 12:07:39;;;;;;;9.47;3.20;;;8.20;99.90;;;;;;4926180;29;20542;-76
2022/11/26 12:10:25;;;;;;;9.32;2.92;;;8.20;99.90;;;;;;4929134;29;20421;-77
2022/11/26 12:12:55;;;;;;;8.25;2.25;;;8.20;99.90;;;;;;4927477;29;20505;-77
2022/11/26 12:15:30;;;;;;;9.50;3.17;;;8.20;99.90;;;;;;4924013;29;20114;-77
2022/11/26 12:18:10;;;;;;;9.60;3.63;;;8.20;99.90;;;;;;4928025;29;20019;-77
2022/11/26 12:20:43;;;;;;;9.85;2.92;;;8.30;99.90;;;;;;4931288;29;20050;-77
2022/11/26 12:23:17;;;;;;;12.90;3.53;;;8.30;99.90;;;;;;4925799;29;20035;-76
2022/11/26 12:25:48;;;;;;;10.10;2.67;;;8.30;99.90;;;;;;4929328;29;20032;-77
2022/11/26 12:28:21;;;;;;;8.70;2.47;;;8.20;99.90;;;;;;4926501;29;20036;-77
2022/11/26 12:31:28;;;;;;;10.48;2.75;;;8.20;99.90;;;;;;4936429;29;20126;-76
2022/11/26 12:34:10;;;;;;;11.40;2.95;;;8.20;99.90;;;;;;4928147;29;20040;-75
2022/11/26 12:36:38;;;;;;;14.48;2.67;;;8.10;99.90;;;;;;4935027;29;20119;-75
2022/11/26 12:39:27;;;;;;;11.38;2.58;;;8.10;99.90;;;;;;4933812;29;20038;-76
2022/11/26 12:41:59;;;;;;;10.85;3.00;;;8.10;99.90;;;;;;4932777;29;20031;-76
2022/11/26 12:44:32;;;;;;;8.80;2.58;;;8.00;99.90;;;;;;4930251;29;20034;-77
2022/11/26 12:47:25;;;;;;;7.18;2.15;;;8.00;99.90;;;;;;4931920;29;20091;-76
2022/11/26 12:50:12;;;;;;;10.45;2.45;;;8.10;99.90;;;;;;4930200;29;20035;-76
2022/11/26 12:52:59;;;;;;;11.77;2.72;;;8.20;99.90;;;;;;4926422;29;20496;-76
2022/11/26 12:55:29;;;;;;;12.18;3.63;;;8.30;99.90;;;;;;4925337;29;20028;-77
2022/11/26 12:58:01;;;;;;;7.47;2.70;;;8.30;99.90;;;;;;4933947;29;20019;-77
2022/11/26 13:00:36;;;;;;;11.77;3.03;;;8.40;99.90;;;;;;4927933;29;20031;-76
2022/11/26 13:03:05;;;;;;;7.70;2.22;;;8.30;99.90;;;;;;4927786;29;20028;-77
2022/11/26 13:05:46;;;;;;;10.63;2.05;;;8.30;99.90;;;;;;4931032;29;20031;-76
2022/11/26 13:08:40;;;;;;;9.63;2.75;;;8.20;99.90;;;;;;4926601;29;20096;-76
2022/11/26 13:11:25;;;;;;;10.45;3.00;;;8.20;99.90;;;;;;4926058;29;20045;-77
2022/11/26 13:14:23;;;;;;;8.90;2.30;;;8.10;99.90;;;;;;4930064;29;20032;-77
2022/11/26 13:17:09;;;;;;;10.60;3.10;;;8.10;99.90;;;;;;4930446;29;20405;-76